Time;durP1;ratioP1;P1;durP2;ratioP2;P2;SDS_P1;SDS_P2;PMS_P1;PMS_P2;Temp;Humidity;BMP_temperature;BMP_pressure;BME280_temperature;BME280_humidity;BME280_pressure;Samples;Min_cycle;Max_cycle;Signal;HPM_P1;HPM_P2
2024/03/28 05:30:09;;;;;;;0.10;0.10;;;5.40;88.00;;;;;;6126868;23;20016;-78
2024/03/28 05:32:34;;;;;;;0.10;0.10;;;5.50;87.80;;;;;;5028806;28;20025;-78
2024/03/28 05:35:00;;;;;;;0.10;0.10;;;5.60;86.80;;;;;;5036494;28;20558;-79
2024/03/28 05:37:27;;;;;;;0.10;0.10;;;5.70;87.00;;;;;;5032809;28;20125;-79
2024/03/28 05:39:52;;;;;;;0.10;0.10;;;5.80;87.20;;;;;;5015844;28;20077;-79
2024/03/28 05:42:18;;;;;;;0.10;0.10;;;5.90;86.70;;;;;;5018207;28;20053;-79
2024/03/28 05:44:44;;;;;;;0.10;0.10;;;6.00;86.20;;;;;;5036159;28;20080;-78
2024/03/28 05:47:09;;;;;;;0.10;0.10;;;6.00;85.70;;;;;;5018143;28;20389;-78
2024/03/28 05:49:35;;;;;;;0.10;0.10;;;6.10;85.70;;;;;;5026766;28;20044;-78
2024/03/28 05:52:01;;;;;;;0.10;0.10;;;6.10;85.20;;;;;;5036096;28;20033;-78
2024/03/28 05:54:26;;;;;;;0.10;0.10;;;6.00;85.00;;;;;;5014813;28;20029;-79
2024/03/28 05:56:52;;;;;;;0.10;0.10;;;6.00;85.20;;;;;;5016541;28;20033;-76
2024/03/28 05:59:17;;;;;;;0.10;0.10;;;6.00;85.00;;;;;;5015971;28;20561;-76
2024/03/28 06:01:43;;;;;;;0.10;0.10;;;6.00;84.60;;;;;;5015445;28;20026;-78
2024/03/28 06:04:09;;;;;;;0.10;0.10;;;6.00;84.80;;;;;;5035041;28;20776;-75
2024/03/28 06:06:34;;;;;;;0.10;0.10;;;6.00;84.70;;;;;;5032581;28;20033;-75
2024/03/28 06:09:00;;;;;;;0.10;0.10;;;6.00;84.10;;;;;;5016089;28;20032;-77
2024/03/28 06:11:26;;;;;;;0.10;0.10;;;6.00;84.50;;;;;;5016815;28;20026;-75
2024/03/28 06:14:06;;;;;;;0.10;0.10;;;6.00;84.30;;;;;;5015844;28;20037;-76
2024/03/28 06:16:32;;;;;;;0.10;0.10;;;6.00;84.60;;;;;;5016048;28;20065;-77
2024/03/28 06:18:58;;;;;;;0.10;0.10;;;6.00;84.70;;;;;;5015931;28;20029;-77
2024/03/28 06:21:23;;;;;;;0.10;0.10;;;6.00;84.60;;;;;;5016565;28;20033;-75
2024/03/28 06:23:49;;;;;;;0.10;0.10;;;6.00;84.60;;;;;;5015371;28;20044;-77
2024/03/28 06:26:14;;;;;;;0.10;0.10;;;6.00;84.70;;;;;;5023770;28;20428;-78
2024/03/28 06:28:40;;;;;;;0.10;0.10;;;6.00;84.80;;;;;;5014381;28;20057;-77
2024/03/28 06:31:06;;;;;;;0.10;0.10;;;6.00;85.00;;;;;;5022006;28;20085;-78
2024/03/28 06:33:31;;;;;;;0.10;0.10;;;6.00;85.30;;;;;;5045017;28;20025;-77
2024/03/28 06:35:57;;;;;;;0.10;0.10;;;6.10;85.00;;;;;;5036439;28;20018;-78
2024/03/28 06:38:22;;;;;;;0.10;0.10;;;6.10;85.20;;;;;;5034904;28;20025;-77
2024/03/28 06:40:58;;;;;;;0.10;0.10;;;6.10;85.30;;;;;;5047953;28;20416;-77
2024/03/28 06:43:24;;;;;;;0.10;0.10;;;6.20;85.40;;;;;;5058387;28;20037;-77
2024/03/28 06:45:49;;;;;;;0.10;0.10;;;6.20;85.30;;;;;;5041676;28;20499;-84
2024/03/28 06:48:15;;;;;;;0.20;0.20;;;6.30;85.40;;;;;;5056508;28;20446;-84
2024/03/28 06:50:41;;;;;;;0.10;0.10;;;6.30;85.50;;;;;;5040881;28;20033;-80
2024/03/28 06:53:06;;;;;;;0.13;0.13;;;6.40;85.80;;;;;;5039894;28;20033;-79
2024/03/28 06:55:32;;;;;;;0.17;0.17;;;6.40;85.80;;;;;;5039031;28;20025;-79
2024/03/28 06:57:58;;;;;;;0.20;0.20;;;6.60;85.40;;;;;;5039725;28;20033;-79
2024/03/28 07:00:24;;;;;;;0.20;0.20;;;6.70;85.30;;;;;;5021202;28;20034;-79
2024/03/28 07:02:49;;;;;;;0.10;0.10;;;7.00;84.80;;;;;;5047184;28;20033;-79
2024/03/28 07:05:15;;;;;;;0.13;0.13;;;7.40;84.60;;;;;;5059154;28;20082;-80
2024/03/28 07:07:41;;;;;;;0.10;0.10;;;7.80;83.20;;;;;;5042734;28;20040;-80
2024/03/28 07:10:07;;;;;;;0.10;0.10;;;8.00;82.60;;;;;;5038908;28;20025;-79
2024/03/28 07:12:36;;;;;;;0.10;0.10;;;8.00;82.30;;;;;;5039616;28;20063;-79
2024/03/28 07:15:02;;;;;;;0.10;0.10;;;7.60;83.20;;;;;;5038788;28;20028;-79
2024/03/28 07:17:29;;;;;;;0.10;0.10;;;7.40;83.70;;;;;;5039109;28;20138;-79
2024/03/28 07:19:55;;;;;;;0.10;0.10;;;7.30;84.30;;;;;;5039102;28;20511;-79
2024/03/28 07:22:21;;;;;;;0.10;0.10;;;7.20;84.90;;;;;;5042847;28;20447;-79
2024/03/28 07:24:46;;;;;;;0.10;0.10;;;7.20;85.30;;;;;;5039337;28;20025;-80
2024/03/28 07:27:12;;;;;;;0.10;0.10;;;7.20;85.50;;;;;;5042600;28;20033;-79
2024/03/28 07:29:38;;;;;;;0.10;0.10;;;7.20;85.60;;;;;;5038676;28;20072;-79
2024/03/28 07:32:04;;;;;;;0.10;0.10;;;7.20;85.30;;;;;;5041396;28;20065;-79
2024/03/28 07:34:29;;;;;;;0.10;0.10;;;7.10;85.00;;;;;;5058415;28;20400;-79
2024/03/28 07:36:55;;;;;;;0.10;0.10;;;7.10;84.80;;;;;;5053499;28;20034;-79
2024/03/28 07:39:24;;;;;;;0.10;0.10;;;7.20;84.50;;;;;;5038416;28;20052;-79
2024/03/28 07:41:49;;;;;;;0.20;0.20;;;7.20;84.20;;;;;;5038448;28;20381;-79
2024/03/28 07:44:15;;;;;;;0.20;0.20;;;7.60;84.00;;;;;;5038740;28;20048;-79
2024/03/28 07:46:41;;;;;;;0.30;0.30;;;8.20;82.50;;;;;;5038436;28;20053;-81
2024/03/28 07:49:06;;;;;;;0.25;0.25;;;9.10;80.10;;;;;;5039076;28;20029;-81
2024/03/28 07:51:32;;;;;;;0.22;0.22;;;10.30;75.80;;;;;;5058283;28;20462;-80
2024/03/28 07:53:58;;;;;;;0.30;0.30;;;10.90;74.80;;;;;;5056263;28;20100;-80
2024/03/28 07:56:23;;;;;;;0.20;0.20;;;11.30;71.90;;;;;;5038289;28;20045;-79
2024/03/28 07:58:49;;;;;;;0.20;0.20;;;11.30;70.90;;;;;;5037959;28;20025;-80
2024/03/28 08:01:15;;;;;;;0.05;0.05;;;11.20;71.00;;;;;;5038698;28;20038;-79
2024/03/28 08:03:40;;;;;;;0.10;0.10;;;10.40;72.00;;;;;;5051129;28;20017;-79
2024/03/28 08:06:07;;;;;;;0.00;0.00;;;9.70;74.10;;;;;;5038050;28;20037;-79
2024/03/28 08:08:34;;;;;;;0.10;0.10;;;9.00;75.80;;;;;;5037613;28;20033;-79
2024/03/28 08:10:59;;;;;;;0.20;0.20;;;8.70;77.80;;;;;;5037982;28;20025;-79
2024/03/28 08:13:25;;;;;;;0.30;0.30;;;8.60;78.50;;;;;;5038334;28;20034;-79
2024/03/28 08:15:52;;;;;;;0.20;0.20;;;9.70;75.90;;;;;;5037741;28;20025;-79
2024/03/28 08:18:17;;;;;;;0.40;0.40;;;10.60;72.60;;;;;;5038073;28;20064;-79
2024/03/28 08:20:44;;;;;;;0.40;0.40;;;11.40;71.80;;;;;;5037770;28;20037;-79
2024/03/28 08:23:10;;;;;;;1.98;1.88;;;11.70;70.10;;;;;;5037450;28;20033;-80
2024/03/28 08:25:36;;;;;;;0.40;0.40;;;11.80;68.40;;;;;;5038140;28;20042;-79
2024/03/28 08:28:01;;;;;;;0.35;0.35;;;12.00;69.10;;;;;;5019737;28;20485;-79
2024/03/28 08:30:27;;;;;;;0.50;0.50;;;12.10;68.40;;;;;;5039639;28;20073;-79
2024/03/28 08:32:55;;;;;;;0.30;0.30;;;12.10;68.00;;;;;;5046201;28;20522;-79
2024/03/28 08:35:21;;;;;;;0.60;0.60;;;12.10;68.30;;;;;;5049642;28;20107;-79
2024/03/28 08:37:47;;;;;;;0.28;0.28;;;12.20;68.00;;;;;;5037424;28;20029;-79
2024/03/28 08:40:13;;;;;;;0.20;0.20;;;12.40;67.50;;;;;;5042856;28;20035;-80
2024/03/28 08:42:45;;;;;;;0.22;0.22;;;12.30;68.10;;;;;;5036035;28;20061;-79
2024/03/28 08:45:12;;;;;;;0.00;0.00;;;12.10;68.50;;;;;;5047255;28;20034;-79
2024/03/28 08:47:39;;;;;;;0.93;0.93;;;11.40;70.60;;;;;;5036145;28;20083;-79
2024/03/28 08:50:05;;;;;;;0.28;0.28;;;11.30;72.50;;;;;;5036922;28;20026;-79
2024/03/28 08:52:31;;;;;;;0.10;0.10;;;12.00;71.40;;;;;;5037626;28;20081;-79
2024/03/28 08:54:57;;;;;;;2.55;2.45;;;11.80;70.70;;;;;;5019247;28;20053;-79
2024/03/28 08:57:27;;;;;;;3.47;3.38;;;12.20;70.40;;;;;;5036931;28;20151;-80
2024/03/28 08:59:54;;;;;;;1.00;1.00;;;12.90;68.10;;;;;;5037061;28;20389;-79
2024/03/28 09:02:20;;;;;;;2.15;2.05;;;13.50;66.10;;;;;;5036846;28;20160;-79
2024/03/28 09:04:49;;;;;;;1.27;1.25;;;13.70;65.40;;;;;;5036804;28;20033;-79
2024/03/28 09:07:15;;;;;;;1.95;1.85;;;14.60;62.70;;;;;;5035755;28;20025;-80
2024/03/28 09:09:42;;;;;;;0.10;0.10;;;14.50;60.90;;;;;;5036578;28;20026;-79
2024/03/28 09:12:10;;;;;;;0.10;0.10;;;14.20;62.50;;;;;;5036915;28;20021;-80
2024/03/28 09:14:42;;;;;;;0.10;0.10;;;13.20;64.20;;;;;;5036680;28;20033;-80
2024/03/28 09:17:08;;;;;;;0.10;0.10;;;12.60;66.90;;;;;;5055865;28;20036;-80
2024/03/28 09:19:34;;;;;;;0.25;0.25;;;12.50;67.30;;;;;;5038126;28;20029;-79
2024/03/28 09:22:01;;;;;;;0.10;0.10;;;12.50;67.10;;;;;;5038768;28;20619;-79
2024/03/28 09:24:26;;;;;;;0.10;0.10;;;12.00;68.20;;;;;;5038290;28;20035;-79
2024/03/28 09:26:52;;;;;;;0.82;0.82;;;11.80;70.00;;;;;;5056549;28;20092;-79
2024/03/28 09:29:20;;;;;;;0.75;0.75;;;12.20;69.50;;;;;;5055149;28;20021;-79
2024/03/28 09:31:50;;;;;;;0.20;0.20;;;13.20;65.60;;;;;;5056537;28;20041;-79
2024/03/28 09:34:18;;;;;;;0.25;0.25;;;13.20;66.40;;;;;;5056579;28;20456;-80
2024/03/28 09:36:45;;;;;;;0.15;0.15;;;13.20;65.50;;;;;;5056130;28;20035;-79
2024/03/28 09:39:14;;;;;;;0.10;0.10;;;13.70;65.40;;;;;;5048006;28;20481;-80
2024/03/28 09:41:46;;;;;;;0.35;0.35;;;13.70;63.80;;;;;;5053805;28;20017;-79
2024/03/28 09:44:18;;;;;;;0.30;0.30;;;13.10;64.60;;;;;;5056244;28;20022;-79
2024/03/28 09:46:46;;;;;;;;;;;13.60;64.70;;;;;;5038737;28;20029;-80
2024/03/28 09:49:15;;;;;;;1.13;1.13;;;14.60;62.20;;;;;;5034625;28;19913;-80
2024/03/28 09:51:42;;;;;;;0.90;0.90;;;15.50;60.90;;;;;;5036097;28;20025;-80
2024/03/28 09:54:08;;;;;;;1.27;1.20;;;16.30;58.00;;;;;;5036024;28;20025;-80
2024/03/28 09:56:35;;;;;;;0.10;0.10;;;16.60;55.10;;;;;;5037985;28;20025;-80
2024/03/28 09:59:01;;;;;;;0.10;0.10;;;16.60;54.60;;;;;;5056372;28;20100;-80
2024/03/28 10:01:28;;;;;;;0.10;0.10;;;15.60;56.40;;;;;;5055816;28;20021;-79
2024/03/28 10:04:04;;;;;;;0.68;0.68;;;15.40;57.80;;;;;;5023962;28;20029;-80
2024/03/28 10:06:30;;;;;;;1.00;1.00;;;14.80;58.50;;;;;;5036052;28;20022;-79
2024/03/28 10:08:56;;;;;;;0.10;0.10;;;15.30;57.30;;;;;;5036148;28;20045;-79
2024/03/28 10:11:22;;;;;;;0.52;0.52;;;15.00;57.70;;;;;;5036447;28;20096;-80
2024/03/28 10:13:49;;;;;;;1.00;1.00;;;15.50;56.80;;;;;;5039044;28;20504;-80
2024/03/28 10:16:18;;;;;;;0.90;0.90;;;15.20;55.50;;;;;;5022746;28;20029;-80
2024/03/28 10:18:44;;;;;;;1.60;1.38;;;15.60;56.80;;;;;;5040280;28;20028;-79
2024/03/28 10:21:12;;;;;;;0.10;0.10;;;15.40;56.00;;;;;;5038392;28;20116;-80
2024/03/28 10:23:42;;;;;;;0.10;0.10;;;15.30;57.70;;;;;;5039978;28;20091;-79
2024/03/28 10:26:11;;;;;;;0.20;0.20;;;15.00;58.00;;;;;;5042365;28;20025;-79
2024/03/28 10:28:42;;;;;;;0.20;0.20;;;14.50;59.20;;;;;;5039805;28;20033;-79
2024/03/28 10:31:07;;;;;;;0.10;0.10;;;14.00;60.00;;;;;;5040159;28;20058;-79
2024/03/28 10:33:33;;;;;;;0.10;0.10;;;14.10;60.90;;;;;;5059498;28;20116;-79
2024/03/28 10:36:00;;;;;;;0.10;0.10;;;13.80;60.90;;;;;;5059742;28;20081;-78
2024/03/28 10:38:26;;;;;;;0.10;0.10;;;13.90;61.50;;;;;;5059587;28;20032;-79
2024/03/28 10:40:55;;;;;;;0.10;0.10;;;13.80;60.70;;;;;;5058167;28;20021;-79
2024/03/28 10:43:27;;;;;;;0.10;0.10;;;13.60;60.20;;;;;;5059561;28;20399;-79
2024/03/28 10:45:59;;;;;;;0.20;0.20;;;13.60;61.10;;;;;;5041679;28;20104;-79
2024/03/28 10:48:25;;;;;;;0.10;0.10;;;13.40;61.70;;;;;;5039316;28;20053;-79
2024/03/28 10:51:11;;;;;;;0.20;0.20;;;13.30;62.10;;;;;;5035330;28;20052;-80
2024/03/28 10:53:49;;;;;;;0.10;0.10;;;13.40;63.00;;;;;;5059267;28;20468;-79
2024/03/28 10:56:17;;;;;;;0.15;0.15;;;13.60;61.70;;;;;;5037712;28;20032;-79
2024/03/28 10:58:44;;;;;;;0.10;0.10;;;13.60;62.30;;;;;;5039323;28;20032;-79
2024/03/28 11:01:09;;;;;;;0.10;0.10;;;13.80;62.30;;;;;;5039600;28;20400;-79
2024/03/28 11:03:36;;;;;;;0.10;0.10;;;13.90;61.80;;;;;;5053704;28;20060;-79
2024/03/28 11:06:02;;;;;;;0.10;0.10;;;13.80;62.00;;;;;;5058872;28;20032;-79
2024/03/28 11:08:31;;;;;;;0.10;0.10;;;13.70;62.50;;;;;;5021427;28;20442;-79
2024/03/28 11:10:59;;;;;;;0.10;0.10;;;13.50;62.80;;;;;;5039114;28;20496;-79
2024/03/28 11:13:25;;;;;;;0.00;0.00;;;13.00;63.70;;;;;;5039649;28;20025;-79
2024/03/28 11:16:10;;;;;;;0.10;0.10;;;12.10;75.80;;;;;;5051974;28;20510;-81
2024/03/28 11:18:35;;;;;;;0.10;0.10;;;11.20;76.50;;;;;;5040983;28;20033;-82
2024/03/28 11:21:02;;;;;;;0.00;0.00;;;11.10;75.60;;;;;;5050419;28;20025;-82
2024/03/28 11:23:29;;;;;;;0.10;0.10;;;11.10;75.80;;;;;;5038208;28;20068;-82
2024/03/28 11:26:08;;;;;;;0.10;0.10;;;11.10;77.60;;;;;;5037209;28;20121;-81
2024/03/28 11:28:39;;;;;;;0.10;0.10;;;10.70;78.30;;;;;;5039279;28;20033;-82
2024/03/28 11:31:06;;;;;;;0.13;0.13;;;10.80;78.90;;;;;;5042976;28;20053;-81
2024/03/28 11:33:43;;;;;;;0.10;0.10;;;10.90;78.40;;;;;;5058459;28;20021;-81
2024/03/28 11:36:09;;;;;;;0.20;0.20;;;11.20;78.90;;;;;;5058157;28;20047;-81
2024/03/28 11:38:36;;;;;;;0.10;0.10;;;11.50;77.90;;;;;;5058071;28;20108;-79
2024/03/28 11:41:05;;;;;;;0.10;0.10;;;12.00;75.80;;;;;;5058456;28;20025;-80
2024/03/28 11:43:32;;;;;;;0.10;0.10;;;12.20;75.20;;;;;;5058390;28;20056;-84
2024/03/28 11:46:00;;;;;;;0.10;0.10;;;12.20;74.20;;;;;;5039970;28;20029;-80
2024/03/28 11:48:28;;;;;;;0.20;0.20;;;11.90;75.80;;;;;;5040266;28;20031;-79
2024/03/28 11:50:54;;;;;;;0.10;0.10;;;11.90;75.50;;;;;;5031013;28;20025;-79
2024/03/28 11:53:24;;;;;;;0.20;0.20;;;12.10;74.60;;;;;;5020644;28;20092;-84
2024/03/28 11:55:51;;;;;;;0.20;0.20;;;12.30;74.50;;;;;;5038180;28;20021;-81
2024/03/28 11:58:24;;;;;;;0.10;0.10;;;12.10;73.40;;;;;;5036912;28;20031;-82
2024/03/28 12:00:56;;;;;;;0.10;0.10;;;12.20;72.90;;;;;;5038430;28;20053;-80
2024/03/28 12:03:22;;;;;;;0.10;0.10;;;12.40;72.70;;;;;;5043605;28;20034;-83
2024/03/28 12:05:49;;;;;;;0.10;0.10;;;12.30;71.70;;;;;;5038150;28;20026;-83
2024/03/28 12:08:15;;;;;;;0.10;0.10;;;12.50;72.50;;;;;;5037897;28;20487;-84
2024/03/28 12:10:41;;;;;;;0.20;0.20;;;12.50;70.90;;;;;;5037932;28;20021;-83
2024/03/28 12:13:07;;;;;;;0.10;0.10;;;12.70;72.00;;;;;;5038196;28;20079;-84
2024/03/28 12:15:33;;;;;;;0.10;0.10;;;12.80;70.60;;;;;;5037814;28;20068;-83
2024/03/28 12:17:59;;;;;;;0.10;0.10;;;13.20;70.40;;;;;;5019961;28;20095;-86
2024/03/28 12:20:25;;;;;;;0.10;0.10;;;13.30;69.60;;;;;;5036790;28;20029;-78
2024/03/28 12:22:55;;;;;;;0.10;0.10;;;13.60;67.30;;;;;;5024271;28;20112;-79
2024/03/28 12:25:21;;;;;;;0.10;0.10;;;13.60;65.90;;;;;;5037808;28;20110;-83
2024/03/28 12:27:58;;;;;;;0.10;0.10;;;13.70;66.10;;;;;;5036465;28;20506;-79
2024/03/28 12:30:25;;;;;;;0.10;0.10;;;13.70;65.70;;;;;;5037520;28;20022;-82
2024/03/28 12:33:03;;;;;;;0.10;0.10;;;14.00;65.00;;;;;;5051193;28;20117;-78
2024/03/28 12:35:34;;;;;;;0.10;0.10;;;14.00;62.90;;;;;;5057242;28;20021;-79
2024/03/28 12:38:01;;;;;;;0.20;0.20;;;13.90;62.50;;;;;;5039666;28;20021;-79
2024/03/28 12:40:27;;;;;;;0.10;0.10;;;14.10;62.70;;;;;;5038763;28;20090;-79
2024/03/28 12:42:54;;;;;;;0.10;0.10;;;14.20;60.90;;;;;;5057277;28;20029;-78
2024/03/28 12:45:21;;;;;;;0.00;0.00;;;14.40;60.40;;;;;;5036131;28;20029;-75
2024/03/28 12:47:48;;;;;;;0.10;0.10;;;14.30;60.60;;;;;;5054831;28;20485;-77
2024/03/28 12:50:17;;;;;;;0.10;0.10;;;14.30;59.60;;;;;;5045712;28;20036;-78
2024/03/28 12:52:51;;;;;;;0.10;0.10;;;14.20;60.10;;;;;;5037347;28;20036;-78
2024/03/28 12:55:18;;;;;;;0.10;0.10;;;14.10;60.50;;;;;;5037590;28;20029;-78
2024/03/28 12:57:47;;;;;;;0.10;0.10;;;13.80;60.00;;;;;;5037679;28;20543;-77
2024/03/28 13:00:14;;;;;;;0.10;0.10;;;13.60;61.70;;;;;;5036776;28;20033;-80
2024/03/28 13:02:41;;;;;;;0.10;0.10;;;13.70;64.10;;;;;;5042739;28;20467;-78
2024/03/28 13:05:08;;;;;;;0.10;0.10;;;13.50;64.50;;;;;;5057088;28;20436;-77
2024/03/28 13:07:33;;;;;;;0.10;0.10;;;13.40;63.20;;;;;;5049976;28;20045;-75
2024/03/28 13:09:59;;;;;;;0.10;0.10;;;13.20;63.30;;;;;;5036993;28;20504;-77
2024/03/28 13:12:25;;;;;;;0.10;0.10;;;12.80;63.30;;;;;;5036922;28;20026;-77
2024/03/28 13:14:51;;;;;;;0.10;0.10;;;13.00;64.50;;;;;;5037000;28;20033;-78
2024/03/28 13:17:18;;;;;;;0.10;0.10;;;13.10;64.20;;;;;;5036843;28;20086;-77
2024/03/28 13:19:45;;;;;;;0.10;0.10;;;13.20;65.70;;;;;;5018813;28;20033;-77
2024/03/28 13:22:11;;;;;;;0.10;0.10;;;13.10;64.50;;;;;;5052876;28;20123;-77
2024/03/28 13:24:36;;;;;;;0.10;0.10;;;13.20;65.30;;;;;;5053916;28;20056;-77
2024/03/28 13:27:03;;;;;;;0.10;0.10;;;13.30;65.30;;;;;;5036532;28;20052;-77
2024/03/28 13:29:28;;;;;;;0.10;0.10;;;13.30;66.00;;;;;;5036955;28;20025;-77
2024/03/28 13:31:54;;;;;;;0.10;0.10;;;13.50;66.20;;;;;;5043596;28;20585;-77
2024/03/28 13:34:20;;;;;;;0.10;0.10;;;13.60;66.80;;;;;;5056266;28;20029;-77
2024/03/28 13:36:49;;;;;;;0.10;0.10;;;13.50;66.80;;;;;;5056196;28;20027;-77
2024/03/28 13:39:15;;;;;;;0.10;0.10;;;13.60;66.90;;;;;;5053129;28;20021;-77
2024/03/28 13:41:40;;;;;;;0.10;0.10;;;13.40;67.90;;;;;;5053635;28;20619;-77
2024/03/28 13:44:06;;;;;;;0.10;0.10;;;13.50;67.70;;;;;;5056312;28;20089;-76
2024/03/28 13:46:32;;;;;;;0.10;0.10;;;13.60;66.30;;;;;;5056139;28;20018;-77
2024/03/28 13:48:57;;;;;;;0.10;0.10;;;13.70;66.20;;;;;;5037350;28;20118;-78
2024/03/28 13:51:24;;;;;;;0.10;0.10;;;13.80;65.00;;;;;;5036461;28;20045;-77
2024/03/28 13:53:49;;;;;;;0.10;0.10;;;13.70;64.00;;;;;;5036025;28;20017;-77
2024/03/28 13:56:15;;;;;;;0.10;0.10;;;13.50;64.00;;;;;;5036583;28;20028;-77
2024/03/28 13:58:41;;;;;;;0.10;0.10;;;13.60;64.40;;;;;;5034988;28;20029;-77
2024/03/28 14:01:06;;;;;;;0.10;0.10;;;13.70;64.70;;;;;;5035964;28;20022;-80
2024/03/28 14:03:32;;;;;;;0.10;0.10;;;13.70;65.10;;;;;;5049838;28;20033;-79
2024/03/28 14:06:02;;;;;;;0.10;0.10;;;13.80;65.10;;;;;;5037045;28;20044;-87
2024/03/28 14:08:28;;;;;;;0.10;0.10;;;13.80;64.90;;;;;;5034944;28;20033;-80
2024/03/28 14:10:54;;;;;;;0.10;0.10;;;13.80;64.90;;;;;;5036330;28;20020;-79
2024/03/28 14:13:20;;;;;;;0.10;0.10;;;13.80;64.40;;;;;;5036657;28;20030;-79
2024/03/28 14:15:46;;;;;;;0.10;0.10;;;13.80;64.90;;;;;;5036488;28;20036;-79
2024/03/28 14:18:12;;;;;;;0.10;0.10;;;14.00;63.30;;;;;;5036104;28;20040;-79
2024/03/28 14:20:38;;;;;;;0.10;0.10;;;14.30;62.40;;;;;;5035836;28;20492;-79
2024/03/28 14:23:05;;;;;;;0.10;0.10;;;14.40;61.70;;;;;;5036451;28;20061;-79
2024/03/28 14:25:30;;;;;;;0.10;0.10;;;14.40;61.20;;;;;;5034770;28;20128;-79
2024/03/28 14:27:56;;;;;;;0.10;0.10;;;14.30;60.80;;;;;;5035706;28;20143;-79
2024/03/28 14:30:22;;;;;;;0.10;0.10;;;14.30;60.00;;;;;;5036020;28;20087;-79
2024/03/28 14:32:47;;;;;;;0.10;0.10;;;14.20;60.20;;;;;;5044494;28;20030;-79
2024/03/28 14:35:13;;;;;;;0.10;0.10;;;14.20;59.80;;;;;;5035734;28;20072;-79
2024/03/28 14:37:39;;;;;;;0.10;0.10;;;14.10;59.00;;;;;;5036268;28;20037;-79
2024/03/28 14:40:06;;;;;;;0.10;0.10;;;14.00;59.50;;;;;;5047460;28;20377;-80
2024/03/28 14:42:32;;;;;;;0.10;0.10;;;14.00;60.70;;;;;;5055573;28;20078;-80
2024/03/28 14:44:58;;;;;;;0.10;0.10;;;13.90;60.80;;;;;;5050949;28;20102;-79
2024/03/28 14:47:24;;;;;;;0.10;0.10;;;13.70;61.80;;;;;;5035863;28;20053;-80
2024/03/28 14:49:55;;;;;;;0.10;0.10;;;13.60;62.40;;;;;;5035455;28;20022;-79
2024/03/28 14:52:21;;;;;;;0.10;0.10;;;13.50;62.40;;;;;;5035785;28;20076;-79
2024/03/28 14:54:50;;;;;;;0.10;0.10;;;13.20;63.70;;;;;;5034295;28;20030;-80
2024/03/28 14:57:19;;;;;;;0.10;0.10;;;13.30;64.20;;;;;;5037298;28;20045;-79
2024/03/28 14:59:45;;;;;;;0.10;0.10;;;13.20;64.70;;;;;;5057398;28;20017;-79
2024/03/28 15:02:11;;;;;;;0.10;0.10;;;13.30;65.00;;;;;;5059065;28;20028;-83
2024/03/28 15:04:37;;;;;;;0.10;0.10;;;13.30;64.70;;;;;;5059204;28;20107;-82
2024/03/28 15:07:03;;;;;;;0.10;0.10;;;13.50;65.20;;;;;;5037993;28;20087;-82
2024/03/28 15:09:29;;;;;;;0.10;0.10;;;13.70;64.80;;;;;;5038896;28;20033;-83
2024/03/28 15:11:55;;;;;;;0.10;0.10;;;13.90;64.40;;;;;;5039214;28;20033;-82
2024/03/28 15:14:21;;;;;;;0.10;0.10;;;13.90;63.20;;;;;;5039044;28;20147;-84
2024/03/28 15:16:46;;;;;;;0.10;0.10;;;13.90;63.60;;;;;;5057286;28;20488;-83
2024/03/28 15:19:12;;;;;;;0.10;0.10;;;13.60;63.80;;;;;;5059013;28;20059;-82
2024/03/28 15:21:39;;;;;;;0.10;0.10;;;13.50;62.90;;;;;;5041110;28;20051;-81
2024/03/28 15:24:05;;;;;;;0.10;0.10;;;13.60;62.30;;;;;;5040417;28;20026;-81
2024/03/28 15:26:31;;;;;;;0.10;0.10;;;13.70;62.20;;;;;;5038853;28;20126;-83
2024/03/28 15:28:56;;;;;;;0.10;0.10;;;13.80;63.10;;;;;;5038491;28;20033;-84
2024/03/28 15:31:22;;;;;;;0.10;0.10;;;13.90;62.60;;;;;;5040202;28;20048;-83
2024/03/28 15:33:48;;;;;;;0.10;0.10;;;13.90;62.30;;;;;;5056688;28;20051;-83
2024/03/28 15:36:14;;;;;;;0.10;0.10;;;13.90;62.80;;;;;;5039814;28;20086;-81
2024/03/28 15:38:41;;;;;;;0.10;0.10;;;14.10;62.40;;;;;;5057312;28;20021;-82
2024/03/28 15:41:07;;;;;;;0.10;0.10;;;13.90;62.40;;;;;;5056230;28;20027;-83
2024/03/28 15:43:32;;;;;;;0.10;0.10;;;13.70;61.60;;;;;;5057067;28;20100;-83
2024/03/28 15:45:58;;;;;;;0.10;0.10;;;13.70;63.40;;;;;;5057632;28;20056;-81
2024/03/28 15:48:23;;;;;;;0.10;0.10;;;13.70;63.80;;;;;;5054154;28;20029;-82
2024/03/28 15:50:52;;;;;;;0.10;0.10;;;13.80;63.30;;;;;;5056746;28;20021;-83
2024/03/28 15:53:18;;;;;;;0.10;0.10;;;13.80;63.50;;;;;;5054776;28;20033;-83
2024/03/28 15:55:45;;;;;;;0.10;0.10;;;13.60;63.80;;;;;;5056050;28;20045;-84
2024/03/28 15:58:13;;;;;;;0.10;0.10;;;13.50;64.70;;;;;;5050509;28;20029;-83
2024/03/28 16:00:39;;;;;;;0.10;0.10;;;13.50;65.20;;;;;;5039852;28;20025;-82
2024/03/28 16:03:05;;;;;;;0.10;0.10;;;13.60;65.40;;;;;;5038792;28;20063;-82
2024/03/28 16:05:34;;;;;;;0.10;0.10;;;13.50;65.20;;;;;;5058279;28;20085;-82
2024/03/28 16:08:07;;;;;;;0.10;0.10;;;13.50;64.60;;;;;;5054395;28;20089;-83
2024/03/28 16:10:33;;;;;;;0.10;0.10;;;13.40;64.70;;;;;;5038440;28;20025;-82
2024/03/28 16:12:59;;;;;;;0.10;0.10;;;13.30;65.50;;;;;;5057316;28;20021;-82
2024/03/28 16:15:24;;;;;;;0.10;0.10;;;13.20;66.20;;;;;;5042728;28;20109;-83
2024/03/28 16:17:50;;;;;;;0.10;0.10;;;13.20;65.70;;;;;;5051211;28;20032;-82
2024/03/28 16:20:16;;;;;;;0.10;0.10;;;13.10;66.00;;;;;;5056215;28;20057;-82
2024/03/28 16:22:43;;;;;;;0.10;0.10;;;13.00;66.80;;;;;;5054508;28;20028;-81
2024/03/28 16:25:09;;;;;;;0.10;0.10;;;13.00;67.00;;;;;;5057483;28;20037;-83
2024/03/28 16:27:35;;;;;;;0.10;0.10;;;13.00;66.60;;;;;;5043428;28;20111;-82
2024/03/28 16:30:02;;;;;;;0.10;0.10;;;13.10;66.30;;;;;;5047490;28;20488;-84
2024/03/28 16:32:28;;;;;;;0.10;0.10;;;13.20;65.90;;;;;;5051315;28;20037;-82
2024/03/28 16:34:53;;;;;;;0.10;0.10;;;13.20;65.10;;;;;;5046882;28;20024;-81
2024/03/28 16:37:19;;;;;;;0.10;0.10;;;13.20;65.10;;;;;;5046339;28;20481;-82
2024/03/28 16:39:45;;;;;;;0.10;0.10;;;13.20;64.90;;;;;;5046241;28;20029;-83
2024/03/28 16:42:10;;;;;;;0.10;0.10;;;13.10;63.60;;;;;;5047062;28;20025;-81
2024/03/28 16:44:36;;;;;;;0.10;0.10;;;13.10;64.20;;;;;;5046467;28;20055;-83
2024/03/28 16:47:02;;;;;;;0.10;0.10;;;13.00;64.20;;;;;;5047914;28;20396;-82
2024/03/28 16:49:27;;;;;;;0.10;0.10;;;13.00;63.50;;;;;;5047328;28;20100;-83
2024/03/28 16:51:54;;;;;;;0.10;0.10;;;13.00;63.80;;;;;;5029405;28;20032;-80
2024/03/28 16:54:20;;;;;;;0.10;0.10;;;12.90;63.80;;;;;;5051296;28;20021;-82
2024/03/28 16:56:46;;;;;;;0.10;0.10;;;12.80;64.10;;;;;;5051856;28;20021;-81
2024/03/28 16:59:13;;;;;;;0.10;0.10;;;12.80;64.20;;;;;;5050499;28;20429;-83
2024/03/28 17:01:39;;;;;;;0.10;0.10;;;12.70;64.80;;;;;;5048434;28;20021;-83
2024/03/28 17:04:05;;;;;;;0.00;0.00;;;12.70;64.80;;;;;;5053533;28;20040;-82
2024/03/28 17:06:30;;;;;;;0.10;0.10;;;12.70;65.30;;;;;;5047237;28;20037;-80
2024/03/28 17:08:56;;;;;;;0.10;0.10;;;12.60;65.60;;;;;;5027608;28;20124;-80
2024/03/28 17:11:25;;;;;;;0.10;0.10;;;12.30;66.10;;;;;;5047455;28;20033;-82
2024/03/28 17:13:51;;;;;;;0.03;0.03;;;12.30;67.00;;;;;;5045288;28;20013;-83
2024/03/28 17:16:16;;;;;;;0.10;0.10;;;12.20;69.80;;;;;;5048659;28;20018;-83
2024/03/28 17:18:42;;;;;;;0.00;0.00;;;12.10;71.70;;;;;;5047709;28;20028;-80
2024/03/28 17:21:08;;;;;;;0.10;0.10;;;11.80;69.90;;;;;;5049659;28;20025;-82
2024/03/28 17:23:34;;;;;;;0.10;0.10;;;11.50;72.70;;;;;;5027348;28;20017;-84
2024/03/28 17:26:08;;;;;;;0.00;0.00;;;11.10;74.10;;;;;;5047910;28;20051;-83
2024/03/28 17:28:37;;;;;;;0.10;0.10;;;10.80;73.10;;;;;;5030321;28;20566;-86
2024/03/28 17:31:09;;;;;;;0.20;0.20;;;10.70;73.10;;;;;;5031078;28;20047;-81
2024/03/28 17:33:35;;;;;;;0.10;0.10;;;10.70;73.90;;;;;;5027587;28;20519;-86
2024/03/28 17:36:05;;;;;;;0.10;0.10;;;10.60;76.20;;;;;;5041130;28;20408;-85
2024/03/28 17:38:31;;;;;;;0.10;0.10;;;10.60;77.30;;;;;;5032911;28;20064;-84
2024/03/28 17:40:57;;;;;;;0.10;0.10;;;10.70;76.60;;;;;;5045803;28;20057;-85
2024/03/28 17:43:23;;;;;;;0.10;0.10;;;10.50;77.40;;;;;;5044695;28;20033;-87
2024/03/28 17:45:50;;;;;;;0.00;0.00;;;10.40;77.70;;;;;;5050382;28;20694;-85
2024/03/28 17:48:17;;;;;;;0.00;0.00;;;10.50;77.60;;;;;;5027869;28;20036;-85
2024/03/28 17:50:43;;;;;;;0.10;0.10;;;10.50;77.00;;;;;;5027275;28;20044;-84
2024/03/28 17:53:09;;;;;;;0.10;0.10;;;10.40;77.10;;;;;;5048134;28;20044;-85
2024/03/28 17:55:39;;;;;;;0.10;0.10;;;10.30;77.30;;;;;;5050442;28;20484;-86
2024/03/28 17:58:05;;;;;;;0.10;0.10;;;10.30;77.60;;;;;;5054195;28;20031;-80
2024/03/28 18:00:34;;;;;;;0.10;0.10;;;10.30;78.50;;;;;;5049928;28;20029;-81
2024/03/28 18:03:01;;;;;;;0.10;0.10;;;10.30;78.00;;;;;;5055103;28;20522;-83
2024/03/28 18:05:27;;;;;;;0.10;0.10;;;10.30;78.80;;;;;;5035791;28;20503;-84
2024/03/28 18:07:52;;;;;;;0.10;0.10;;;10.20;79.00;;;;;;5046503;28;20072;-84
2024/03/28 18:10:18;;;;;;;0.00;0.00;;;10.20;79.30;;;;;;5042230;28;20481;-80
2024/03/28 18:12:44;;;;;;;0.10;0.10;;;10.10;78.70;;;;;;5045418;28;20025;-79
2024/03/28 18:15:09;;;;;;;0.00;0.00;;;10.20;78.30;;;;;;5044151;28;20029;-79